Forside
METAR-TAF:

METAR-TAF

Lufthavne :

Cloquet/Carlton County Airport

Cloquet, Minnesota, USA

Breddekreds: 46-42N, længdekreds: 092-30W, højde: 390 m

Aktuelle vejr

Denne rapport blev lavet for 21 minutter siden, kl. 15:15 UTC
Vind stille
Temperatur 10°C
Fugtighed 40%
Tryk 1021 hPa
Sigt: 16.1 km
skyfri

METAR: KCOQ 201515Z AUTO 00000KT 10SM CLR 10/M03 A3015 RMK AO2

Tid: 10:36 (15:36 UTC)


TAF: fraværende

Vejrobservationer og prognoser fra mere end 4000 lufthavne (METAR og TAF).

De gule og røde prikker repræsenterer de meteorologiske stationer.

Flyt musen over at se navnet på stationen.

Så klik over at se vejr observationer og prognoser.

At skifte det kort: Klik på de grønne knapper med et sort kors for at zoome ind; på den grønne knap med en bindestreg for at zoome ud; eller på de grønne pile for tilstødende kort.


METAR-TAF: